createdAt,value
2019-04-03T00:01:37.246Z,11.13
2019-04-03T00:04:05.663Z,10.83
2019-04-03T00:06:35.312Z,11.20
2019-04-03T00:09:07.151Z,10.87
2019-04-03T00:11:39.361Z,10.83
2019-04-03T00:14:07.762Z,10.33
2019-04-03T00:16:43.761Z,10.83
2019-04-03T00:21:50.193Z,10.67
2019-04-03T00:24:22.601Z,9.90
2019-04-03T00:26:54.323Z,9.17
2019-04-03T00:29:24.735Z,9.60
2019-04-03T00:31:56.914Z,10.50
2019-04-03T00:34:28.348Z,9.40
2019-04-03T00:37:09.138Z,8.87
2019-04-03T00:39:38.092Z,9.33
2019-04-03T00:42:16.752Z,8.87
2019-04-03T00:44:49.636Z,8.97
2019-04-03T00:47:20.495Z,8.90
2019-04-03T00:49:48.901Z,9.23
2019-04-03T00:52:23.341Z,9.30
2019-04-03T00:54:53.414Z,9.17
2019-04-03T00:57:26.312Z,9.27
2019-04-03T00:59:59.494Z,8.97
2019-04-03T01:02:41.732Z,9.27
2019-04-03T01:05:10.994Z,9.27
2019-04-03T01:07:44.565Z,9.60
2019-04-03T01:10:13.238Z,10.10
2019-04-03T01:12:48.170Z,8.90
2019-04-03T01:15:20.935Z,8.83
2019-04-03T01:17:52.544Z,9.07
2019-04-03T01:20:20.964Z,8.57
2019-04-03T01:22:49.453Z,8.27
2019-04-03T01:25:23.957Z,8.03
2019-04-03T01:27:57.085Z,8.53
2019-04-03T01:30:28.314Z,8.27
2019-04-03T01:33:17.176Z,7.83
2019-04-03T01:35:52.965Z,10.77
2019-04-03T01:38:23.099Z,13.47
2019-04-03T01:40:51.533Z,10.90
2019-04-03T01:43:25.593Z,9.33
2019-04-03T01:46:02.973Z,8.17
2019-04-03T01:48:37.466Z,7.17
2019-04-03T01:51:10.225Z,7.50
2019-04-03T01:53:41.556Z,7.40
2019-04-03T01:56:12.715Z,7.73
2019-04-03T01:58:42.782Z,8.17
2019-04-03T02:01:17.145Z,7.70
2019-04-03T02:03:45.782Z,7.63
2019-04-03T02:06:15.981Z,6.97
2019-04-03T02:08:47.078Z,7.63
2019-04-03T02:11:19.095Z,7.50
2019-04-03T02:13:51.869Z,7.60
2019-04-03T02:16:23.623Z,7.37
2019-04-03T02:18:55.260Z,7.57
2019-04-03T02:21:24.192Z,7.20
2019-04-03T02:23:54.299Z,6.90
2019-04-03T02:26:25.541Z,7.33
2019-04-03T02:28:57.416Z,7.20
2019-04-03T02:31:28.742Z,7.23
2019-04-03T02:34:04.801Z,7.83
2019-04-03T02:36:38.115Z,6.80
2019-04-03T02:39:06.788Z,7.13
2019-04-03T02:41:36.806Z,6.73
2019-04-03T02:44:08.497Z,7.13
2019-04-03T02:46:43.138Z,7.13
2019-04-03T02:49:14.323Z,6.60
2019-04-03T02:51:45.107Z,6.73
2019-04-03T02:54:30.055Z,6.77
2019-04-03T02:57:01.783Z,6.33
2019-04-03T02:59:38.418Z,6.30
2019-04-03T03:02:11.401Z,6.37
2019-04-03T03:04:41.334Z,6.27
2019-04-03T03:07:10.029Z,6.70
2019-04-03T03:09:46.922Z,6.27
2019-04-03T03:12:20.617Z,6.10
2019-04-03T03:14:52.765Z,7.10
2019-04-03T03:17:27.687Z,6.13
2019-04-03T03:20:06.544Z,7.10
2019-04-03T03:22:38.913Z,6.83
2019-04-03T03:25:10.969Z,7.73
2019-04-03T03:27:42.924Z,7.53
2019-04-03T03:30:33.414Z,7.40
2019-04-03T03:32:50.631Z,7.57
2019-04-03T03:35:29.128Z,7.33
2019-04-03T03:37:51.374Z,7.13
2019-04-03T03:40:20.490Z,6.40
2019-04-03T03:42:53.411Z,6.83
2019-04-03T03:45:25.283Z,7.13
2019-04-03T03:47:54.229Z,6.70
2019-04-03T03:50:29.727Z,6.73
2019-04-03T03:53:00.510Z,6.33
2019-04-03T03:55:35.532Z,7.83
2019-04-03T03:58:11.049Z,7.80
2019-04-03T04:00:38.810Z,7.60
2019-04-03T04:03:12.103Z,7.27
2019-04-03T04:05:43.134Z,7.20
2019-04-03T04:08:12.216Z,8.30
2019-04-03T04:10:46.091Z,7.70
2019-04-03T04:13:16.230Z,8.07
2019-04-03T04:15:52.312Z,7.90
2019-04-03T04:18:22.373Z,8.37
2019-04-03T04:20:52.666Z,9.00
2019-04-03T04:23:25.154Z,7.93
2019-04-03T04:25:56.294Z,7.73
2019-04-03T04:28:28.469Z,7.60
2019-04-03T04:31:01.793Z,7.00
2019-04-03T04:33:38.551Z,7.60
2019-04-03T04:36:10.034Z,8.60
2019-04-03T04:38:41.253Z,8.20
2019-04-03T04:41:12.737Z,9.57
2019-04-03T04:43:44.781Z,9.23
2019-04-03T04:46:17.230Z,9.03
2019-04-03T04:48:51.687Z,9.00
2019-04-03T04:51:26.550Z,9.20
2019-04-03T04:53:59.454Z,9.67
2019-04-03T04:56:32.112Z,8.13
2019-04-03T04:59:00.557Z,7.47
2019-04-03T05:01:44.444Z,7.13
2019-04-03T05:04:20.247Z,8.03
2019-04-03T05:06:53.273Z,8.90
2019-04-03T05:09:26.210Z,9.23
2019-04-03T05:11:57.649Z,10.60
2019-04-03T05:14:26.253Z,10.80
2019-04-03T05:16:56.397Z,10.40
2019-04-03T05:19:24.893Z,10.17
2019-04-03T05:21:59.237Z,10.30
2019-04-03T05:24:29.533Z,9.90
2019-04-03T05:27:03.262Z,10.90
2019-04-03T05:29:34.205Z,8.97
2019-04-03T05:32:02.134Z,7.60
2019-04-03T05:34:36.469Z,7.40
2019-04-03T05:37:11.624Z,7.93
2019-04-03T05:39:55.651Z,8.50
2019-04-03T05:42:16.382Z,8.90
2019-04-03T05:44:50.987Z,8.77
2019-04-03T05:47:25.662Z,9.57
2019-04-03T05:50:04.507Z,9.03
2019-04-03T05:52:35.096Z,8.90
2019-04-03T05:55:05.497Z,7.63
2019-04-03T05:57:35.549Z,8.40
2019-04-03T06:00:12.756Z,8.70
2019-04-03T06:02:52.660Z,9.23
2019-04-03T06:05:28.537Z,10.00
2019-04-03T06:08:00.038Z,10.27
2019-04-03T06:10:31.597Z,10.50
2019-04-03T06:13:09.266Z,10.33
2019-04-03T06:15:34.639Z,11.13
2019-04-03T06:18:03.497Z,10.37
2019-04-03T06:20:31.927Z,9.57
2019-04-03T06:23:00.392Z,9.87
2019-04-03T06:25:31.088Z,10.73
2019-04-03T06:28:05.278Z,10.67
2019-04-03T06:30:38.714Z,8.90
2019-04-03T06:33:16.094Z,8.90
2019-04-03T06:35:45.298Z,9.03
2019-04-03T06:38:23.985Z,9.77
2019-04-03T06:40:50.706Z,8.70
2019-04-03T06:43:31.050Z,8.77
2019-04-03T06:46:02.526Z,9.33
2019-04-03T06:48:42.431Z,9.57
2019-04-03T06:51:11.400Z,10.00
2019-04-03T06:53:45.951Z,10.50
2019-04-03T06:56:20.355Z,10.63
2019-04-03T06:58:51.833Z,10.33
2019-04-03T07:01:25.900Z,10.27
2019-04-03T07:04:04.444Z,14.53
2019-04-03T07:06:34.650Z,25.47
2019-04-03T07:09:05.442Z,19.63
2019-04-03T07:11:40.097Z,17.93
2019-04-03T07:14:11.260Z,16.73
2019-04-03T07:16:44.394Z,18.07
2019-04-03T07:19:15.543Z,17.77
2019-04-03T07:21:46.825Z,18.70
2019-04-03T07:24:16.909Z,16.80
2019-04-03T07:26:48.948Z,18.07
2019-04-03T07:29:19.646Z,16.97
2019-04-03T07:31:55.188Z,16.57
2019-04-03T07:34:37.850Z,16.50
2019-04-03T07:37:06.635Z,16.43
2019-04-03T07:39:36.733Z,15.40
2019-04-03T07:42:09.917Z,16.00
2019-04-03T07:44:38.409Z,15.53
2019-04-03T07:47:09.950Z,16.13
2019-04-03T07:49:41.358Z,14.77
2019-04-03T07:52:12.813Z,15.13
2019-04-03T07:54:44.266Z,16.40
2019-04-03T07:57:18.381Z,15.53
2019-04-03T07:59:55.809Z,15.60
2019-04-03T08:02:27.617Z,14.57
2019-04-03T08:04:59.394Z,14.67
2019-04-03T08:07:27.129Z,14.63
2019-04-03T08:09:57.737Z,15.43
2019-04-03T08:12:34.561Z,15.73
2019-04-03T08:15:05.038Z,16.37
2019-04-03T08:17:33.664Z,16.70
2019-04-03T08:20:07.002Z,15.57
2019-04-03T08:22:40.203Z,16.07
2019-04-03T08:25:13.232Z,15.07
2019-04-03T08:27:47.678Z,15.90
2019-04-03T08:30:18.086Z,15.20
2019-04-03T08:32:48.161Z,14.77
2019-04-03T08:35:24.788Z,15.17
2019-04-03T08:37:53.441Z,12.57
2019-04-03T08:40:22.010Z,12.77
2019-04-03T08:42:59.277Z,13.13
2019-04-03T08:45:30.018Z,11.97
2019-04-03T08:48:06.216Z,12.87
2019-04-03T08:50:36.934Z,11.03
2019-04-03T08:53:15.713Z,11.03
2019-04-03T08:55:51.463Z,11.63
2019-04-03T08:58:25.321Z,11.00
2019-04-03T09:00:57.398Z,11.53
2019-04-03T09:03:26.148Z,12.60
2019-04-03T09:05:57.510Z,11.73
2019-04-03T09:08:27.656Z,11.40
2019-04-03T09:10:56.109Z,11.17
2019-04-03T09:13:27.580Z,11.43
2019-04-03T09:15:58.617Z,11.20
2019-04-03T09:18:26.979Z,11.37
2019-04-03T09:20:59.268Z,11.70
2019-04-03T09:23:35.319Z,11.43
2019-04-03T09:26:05.285Z,11.47
2019-04-03T09:28:36.673Z,9.60
2019-04-03T09:31:09.222Z,10.70
2019-04-03T09:33:45.359Z,9.73
2019-04-03T09:36:13.782Z,9.80
2019-04-03T09:38:46.402Z,10.73
2019-04-03T09:41:14.789Z,9.90
2019-04-03T09:43:45.733Z,10.37
2019-04-03T09:46:15.801Z,10.83
2019-04-03T09:48:50.077Z,11.23
2019-04-03T09:51:23.181Z,10.37
2019-04-03T09:53:53.618Z,10.40
2019-04-03T09:56:23.562Z,10.50
2019-04-03T09:58:55.982Z,10.23
2019-04-03T10:01:27.738Z,10.17
2019-04-03T10:04:03.437Z,10.17
2019-04-03T10:06:37.464Z,9.17
2019-04-03T10:09:07.583Z,9.27
2019-04-03T10:11:39.716Z,10.20
2019-04-03T10:14:08.429Z,9.80
2019-04-03T10:16:38.644Z,10.53
2019-04-03T10:19:07.094Z,8.80
2019-04-03T10:21:37.402Z,9.30
2019-04-03T10:24:07.525Z,8.60
2019-04-03T10:26:51.611Z,9.10
2019-04-03T10:29:21.930Z,9.37
2019-04-03T10:31:50.687Z,9.87
2019-04-03T10:34:19.341Z,9.83
2019-04-03T10:36:56.408Z,10.23
2019-04-03T10:39:24.820Z,8.80
2019-04-03T10:41:56.048Z,8.67
2019-04-03T10:44:27.726Z,7.77
2019-04-03T10:46:58.873Z,9.53
2019-04-03T10:49:27.762Z,9.40
2019-04-03T10:51:58.858Z,10.07
2019-04-03T10:54:37.557Z,10.67
2019-04-03T10:57:14.764Z,12.03
2019-04-03T10:59:53.353Z,12.30
2019-04-03T11:02:19.672Z,12.80
2019-04-03T11:04:48.171Z,12.60
2019-04-03T11:07:16.889Z,12.33
2019-04-03T11:09:45.552Z,13.77
2019-04-03T11:12:15.852Z,14.03
2019-04-03T11:14:48.625Z,13.80
2019-04-03T11:17:20.324Z,13.17
2019-04-03T11:19:49.030Z,13.93
2019-04-03T11:22:21.772Z,14.40
2019-04-03T11:24:50.210Z,14.40
2019-04-03T11:27:25.103Z,14.07
2019-04-03T11:29:54.859Z,14.73
2019-04-03T11:32:25.194Z,15.20
2019-04-03T11:34:55.573Z,14.43
2019-04-03T11:37:34.582Z,13.07
2019-04-03T11:40:05.694Z,14.90
2019-04-03T11:42:35.377Z,13.93
2019-04-03T11:45:05.735Z,15.23
2019-04-03T11:47:40.422Z,13.73
2019-04-03T11:50:15.534Z,14.83
2019-04-03T11:52:51.169Z,15.20
2019-04-03T11:55:18.798Z,14.57
2019-04-03T11:57:50.072Z,14.33
2019-04-03T12:00:23.349Z,14.00
2019-04-03T12:02:52.347Z,14.13
2019-04-03T12:05:24.944Z,12.37
2019-04-03T12:07:59.097Z,14.60
2019-04-03T12:10:36.291Z,13.90
2019-04-03T12:13:07.052Z,15.53
2019-04-03T12:15:38.468Z,13.13
2019-04-03T12:18:09.597Z,13.60
2019-04-03T12:20:45.356Z,14.30
2019-04-03T12:23:14.261Z,14.97
2019-04-03T12:25:44.315Z,14.07
2019-04-03T12:28:17.436Z,13.13
2019-04-03T12:30:52.602Z,12.63
2019-04-03T12:33:35.946Z,12.57
2019-04-03T12:36:07.342Z,12.30
2019-04-03T12:38:35.775Z,11.17
2019-04-03T12:41:04.963Z,11.63
2019-04-03T12:43:36.364Z,11.87
2019-04-03T12:46:05.332Z,12.70
2019-04-03T12:48:33.765Z,12.57
2019-04-03T12:51:05.462Z,12.73
2019-04-03T12:53:36.745Z,11.53
2019-04-03T12:56:08.005Z,11.87
2019-04-03T12:58:44.160Z,12.37
2019-04-03T13:01:15.329Z,11.07
2019-04-03T13:03:47.342Z,10.63
2019-04-03T13:06:27.961Z,10.07
2019-04-03T13:08:56.381Z,9.77
2019-04-03T13:11:33.987Z,9.13
2019-04-03T13:14:05.973Z,9.90
2019-04-03T13:16:34.389Z,8.70
2019-04-03T13:19:04.692Z,8.73
2019-04-03T13:21:39.782Z,8.77
2019-04-03T13:24:11.956Z,9.37
2019-04-03T13:26:42.732Z,10.13
2019-04-03T13:29:12.905Z,9.30
2019-04-03T13:31:41.334Z,9.47
2019-04-03T13:34:12.664Z,8.90
2019-04-03T13:36:50.229Z,7.60
2019-04-03T13:39:24.544Z,7.63
2019-04-03T13:42:00.516Z,6.87
2019-04-03T13:44:30.734Z,7.37
2019-04-03T13:47:02.037Z,6.50
2019-04-03T13:49:31.381Z,5.93
2019-04-03T13:52:03.909Z,5.60
2019-04-03T13:54:33.729Z,5.70
2019-04-03T13:57:05.391Z,6.40
2019-04-03T13:59:34.014Z,6.23
2019-04-03T14:02:04.288Z,6.30
2019-04-03T14:04:33.795Z,6.73
2019-04-03T14:07:03.452Z,7.00
2019-04-03T14:09:44.312Z,6.60
2019-04-03T14:12:12.717Z,6.13
2019-04-03T14:14:41.142Z,7.13
2019-04-03T14:17:13.858Z,7.67
2019-04-03T14:19:48.450Z,6.57
2019-04-03T14:22:15.808Z,6.73
2019-04-03T14:24:50.980Z,8.87
2019-04-03T14:27:24.260Z,7.47
2019-04-03T14:29:51.096Z,6.67
2019-04-03T14:32:24.314Z,7.20
2019-04-03T14:35:04.121Z,7.47
2019-04-03T14:37:30.309Z,7.33
2019-04-03T14:40:01.131Z,6.30
2019-04-03T14:42:35.609Z,6.27
2019-04-03T14:45:13.348Z,7.40
2019-04-03T14:47:41.831Z,7.43
2019-04-03T14:50:11.205Z,6.40
2019-04-03T14:52:39.858Z,6.37
2019-04-03T14:55:19.777Z,6.90
2019-04-03T14:57:49.138Z,6.17
2019-04-03T15:00:28.692Z,6.63
2019-04-03T15:02:56.146Z,6.77
2019-04-03T15:05:24.147Z,6.40
2019-04-03T15:07:52.818Z,6.57
2019-04-03T15:10:21.995Z,6.27
2019-04-03T15:12:55.095Z,6.40
2019-04-03T15:15:28.986Z,6.30
2019-04-03T15:18:00.013Z,6.10
2019-04-03T15:20:33.452Z,6.57
2019-04-03T15:23:04.753Z,6.13
2019-04-03T15:25:37.340Z,6.83
2019-04-03T15:28:07.373Z,7.47
2019-04-03T15:30:37.333Z,7.17
2019-04-03T15:33:07.401Z,7.40
2019-04-03T15:35:37.353Z,6.93
2019-04-03T15:38:10.832Z,6.90
2019-04-03T15:40:46.253Z,6.37
2019-04-03T15:43:16.936Z,6.57
2019-04-03T15:45:48.678Z,7.80
2019-04-03T15:48:20.891Z,7.23
2019-04-03T15:50:56.629Z,8.10
2019-04-03T15:53:26.991Z,7.10
2019-04-03T15:55:58.505Z,10.30
2019-04-03T15:58:27.282Z,9.53
2019-04-03T16:01:02.874Z,9.13
2019-04-03T16:03:31.681Z,9.00
2019-04-03T16:06:03.509Z,8.93
2019-04-03T16:08:32.180Z,8.33
2019-04-03T16:11:02.770Z,7.90
2019-04-03T16:13:34.057Z,8.50
2019-04-03T16:16:03.002Z,8.80
2019-04-03T16:18:38.586Z,8.90
2019-04-03T16:21:07.482Z,9.10
2019-04-03T16:23:38.729Z,8.17
2019-04-03T16:26:12.583Z,8.57
2019-04-03T16:28:42.987Z,8.93
2019-04-03T16:31:13.100Z,8.57
2019-04-03T16:33:43.445Z,8.13
2019-04-03T16:36:17.814Z,8.23
2019-04-03T16:38:52.681Z,9.10
2019-04-03T16:41:21.232Z,8.80
2019-04-03T16:43:49.952Z,8.20
2019-04-03T16:46:19.662Z,8.57
2019-04-03T16:48:49.891Z,8.80
2019-04-03T16:51:20.265Z,8.50
2019-04-03T16:53:51.848Z,8.00
2019-04-03T16:56:23.177Z,8.90
2019-04-03T16:58:54.674Z,8.73
2019-04-03T17:01:25.865Z,8.43
2019-04-03T17:03:57.215Z,9.10
2019-04-03T17:06:29.999Z,7.93
2019-04-03T17:09:06.677Z,7.90
2019-04-03T17:11:36.046Z,8.67
2019-04-03T17:14:05.218Z,8.40
2019-04-03T17:16:46.955Z,8.97
2019-04-03T17:19:21.668Z,8.93
2019-04-03T17:21:50.426Z,9.03
2019-04-03T17:24:29.264Z,8.80
2019-04-03T17:26:59.491Z,8.57
2019-04-03T17:29:31.289Z,8.47
2019-04-03T17:31:59.714Z,8.37
2019-04-03T17:34:28.373Z,7.60
2019-04-03T17:36:56.843Z,8.40
2019-04-03T17:39:29.608Z,8.53
2019-04-03T17:41:59.665Z,8.60
2019-04-03T17:44:32.178Z,9.87
2019-04-03T17:47:02.243Z,10.30
2019-04-03T17:49:30.671Z,10.13
2019-04-03T17:51:59.110Z,9.13
2019-04-03T17:54:31.916Z,9.67
2019-04-03T17:57:06.247Z,8.90
2019-04-03T17:59:34.674Z,10.13
2019-04-03T18:02:05.086Z,9.40
2019-04-03T18:04:36.606Z,9.87
2019-04-03T18:07:06.669Z,10.00
2019-04-03T18:09:38.097Z,15.67
2019-04-03T18:12:06.533Z,14.97
2019-04-03T18:14:34.961Z,12.03
2019-04-03T18:17:03.395Z,11.23
2019-04-03T18:19:37.805Z,13.27
2019-04-03T18:22:09.630Z,11.90
2019-04-03T18:24:39.688Z,12.90
2019-04-03T18:27:08.113Z,11.67
2019-04-03T18:29:44.800Z,10.83
2019-04-03T18:32:13.664Z,11.07
2019-04-03T18:34:43.193Z,11.10
2019-04-03T18:37:23.101Z,12.10
2019-04-03T18:39:51.691Z,13.20
2019-04-03T18:42:20.343Z,14.97
2019-04-03T18:44:49.771Z,16.53
2019-04-03T18:47:19.052Z,13.67
2019-04-03T18:49:50.019Z,14.30
2019-04-03T18:52:18.596Z,11.03
2019-04-03T18:54:48.039Z,11.57
2019-04-03T18:57:17.138Z,10.40
2019-04-03T18:59:53.132Z,11.57
2019-04-03T19:02:24.881Z,12.63
2019-04-03T19:05:01.655Z,15.73
2019-04-03T19:07:27.972Z,12.17
2019-04-03T19:10:06.939Z,13.67
2019-04-03T19:12:35.619Z,11.57
2019-04-03T19:15:03.509Z,11.17
2019-04-03T19:17:34.973Z,10.90
2019-04-03T19:20:10.578Z,11.93
2019-04-03T19:22:36.638Z,12.07
2019-04-03T19:25:07.171Z,11.93
2019-04-03T19:27:35.680Z,12.47
2019-04-03T19:30:07.939Z,12.47
2019-04-03T19:32:42.751Z,12.87
2019-04-03T19:35:11.751Z,14.20
2019-04-03T19:37:45.221Z,27.07
2019-04-03T19:40:20.025Z,15.67
2019-04-03T19:42:49.008Z,16.00
2019-04-03T19:45:20.510Z,18.73
2019-04-03T19:47:48.128Z,15.47
2019-04-03T19:50:16.722Z,14.07
2019-04-03T19:52:45.484Z,13.30
2019-04-03T19:55:14.182Z,14.63
2019-04-03T19:57:45.582Z,15.53
2019-04-03T20:00:17.045Z,14.20
2019-04-03T20:02:48.198Z,13.40
2019-04-03T20:05:19.597Z,13.80
2019-04-03T20:07:49.680Z,13.27
2019-04-03T20:10:21.053Z,12.23
2019-04-03T20:12:51.600Z,11.77
2019-04-03T20:15:22.814Z,11.70
2019-04-03T20:17:50.167Z,12.17
2019-04-03T20:20:21.679Z,11.97
2019-04-03T20:22:50.109Z,13.03
2019-04-03T20:25:23.119Z,12.87
2019-04-03T20:27:52.323Z,11.60
2019-04-03T20:30:25.711Z,13.03
2019-04-03T20:32:56.981Z,11.50
2019-04-03T20:35:28.375Z,11.67
2019-04-03T20:38:03.049Z,13.83
2019-04-03T20:40:35.901Z,11.90
2019-04-03T20:43:07.104Z,11.47
2019-04-03T20:45:40.494Z,10.83
2019-04-03T20:48:11.642Z,10.33
2019-04-03T20:50:45.811Z,11.00
2019-04-03T20:53:16.917Z,11.90
2019-04-03T20:55:46.550Z,11.73
2019-04-03T20:58:18.121Z,11.90
2019-04-03T21:01:05.793Z,11.53
2019-04-03T21:03:25.849Z,11.27
2019-04-03T21:05:56.930Z,12.60
2019-04-03T21:08:31.454Z,11.50
2019-04-03T21:11:02.827Z,11.13
2019-04-03T21:13:34.047Z,11.40
2019-04-03T21:16:06.547Z,11.30
2019-04-03T21:18:35.265Z,13.43
2019-04-03T21:21:06.476Z,14.30
2019-04-03T21:23:40.637Z,14.73
2019-04-03T21:26:09.046Z,14.30
2019-04-03T21:28:40.907Z,12.93
2019-04-03T21:31:12.028Z,12.40
2019-04-03T21:33:45.469Z,11.47
2019-04-03T21:36:21.435Z,10.93
2019-04-03T21:38:55.985Z,10.87
2019-04-03T21:41:26.054Z,10.60
2019-04-03T21:43:55.589Z,10.30
2019-04-03T21:46:29.933Z,11.47
2019-04-03T21:48:59.152Z,11.43
2019-04-03T21:51:30.547Z,11.97
2019-04-03T21:54:03.442Z,12.00
2019-04-03T21:56:34.716Z,12.70
2019-04-03T21:59:05.089Z,12.00
2019-04-03T22:01:37.936Z,12.13
2019-04-03T22:04:06.846Z,14.80
2019-04-03T22:06:40.317Z,14.23
2019-04-03T22:09:15.099Z,14.10
2019-04-03T22:11:46.753Z,15.57
2019-04-03T22:14:17.902Z,14.30
2019-04-03T22:16:51.795Z,16.63
2019-04-03T22:19:20.227Z,15.60
2019-04-03T22:21:48.638Z,15.67
2019-04-03T22:24:21.625Z,15.40
2019-04-03T22:26:58.650Z,15.10
2019-04-03T22:29:27.366Z,15.27
2019-04-03T22:32:01.774Z,16.10
2019-04-03T22:34:33.132Z,15.80
2019-04-03T22:37:03.809Z,15.47
2019-04-03T22:39:33.588Z,17.13
2019-04-03T22:42:02.004Z,15.43
2019-04-03T22:44:35.142Z,16.40
2019-04-03T22:47:06.255Z,16.87
2019-04-03T22:49:39.360Z,17.00
2019-04-03T22:52:19.548Z,17.33
2019-04-03T22:54:50.734Z,16.27
2019-04-03T22:57:21.924Z,16.93
2019-04-03T22:59:50.353Z,16.43
2019-04-03T23:02:18.801Z,16.80
2019-04-03T23:04:58.815Z,16.47
2019-04-03T23:07:28.862Z,17.20
2019-04-03T23:09:57.296Z,16.40
2019-04-03T23:12:34.465Z,17.93
2019-04-03T23:15:04.810Z,17.17
2019-04-03T23:17:33.224Z,17.07
2019-04-03T23:20:10.273Z,16.30
2019-04-03T23:22:41.497Z,18.13
2019-04-03T23:25:10.346Z,17.40
2019-04-03T23:27:38.761Z,17.27
2019-04-03T23:30:09.934Z,16.73
2019-04-03T23:32:46.462Z,17.30
2019-04-03T23:35:20.575Z,15.53
2019-04-03T23:37:49.440Z,17.53
2019-04-03T23:40:20.625Z,17.27
2019-04-03T23:42:51.770Z,17.37
2019-04-03T23:45:26.888Z,17.87
2019-04-03T23:47:55.314Z,17.33
2019-04-03T23:50:25.369Z,17.43
2019-04-03T23:53:00.957Z,17.07
2019-04-03T23:55:31.712Z,17.63
2019-04-03T23:58:03.105Z,17.47
